Terminal Aerodrome Forecast
Issued by NWS

Home | Current Version | Previous Version | Text Only | Print | Product List | Glossary On
Versions: 1 2 3 4 5 6 7 8 9 10 11 12 13 14 15 16 17 18 19 20 21 22 23 24 25 26 27 28 29 30
000
FTUS45 KGJT 220303 AAA
TAFASE
TAF AMD
KASE 220303Z 2203/2224 VRB05KT P6SM VCSH OVC070
      TEMPO 2203/2205 FEW050 BKN060 OVC120
     FM220900 20004KT P6SM BKN090
     FM221400 VRB03KT P6SM SCT150
     FM221700 35004KT P6SM BKN150
     FM222200 04009KT P6SM BKN120=

USA.gov is the U.S. government's official web portal to all federal, state and local government web resources and services.